Time;durP1;ratioP1;P1;durP2;ratioP2;P2;SDS_P1;SDS_P2;PMS_P1;PMS_P2;Temp;Humidity;BMP_temperature;BMP_pressure;BME280_temperature;BME280_humidity;BME280_pressure;Samples;Min_cycle;Max_cycle;Signal;HPM_P1;HPM_P2
2022/09/29 00:00:32;;;;;;;6.03;1.67;;;;;;;6.90;100.00;97178.38;4949586;28;20282;-59
2022/09/29 00:02:58;;;;;;;5.67;1.50;;;;;;;6.92;100.00;97180.81;4951482;28;20284;-55
2022/09/29 00:05:26;;;;;;;7.37;1.60;;;;;;;6.96;100.00;97183.91;4948527;28;20300;-57
2022/09/29 00:07:53;;;;;;;4.17;1.50;;;;;;;6.92;100.00;97181.63;4954018;28;20946;-57
2022/09/29 00:10:20;;;;;;;10.83;2.00;;;;;;;6.94;100.00;97173.66;4951601;28;20264;-57
2022/09/29 00:12:46;;;;;;;5.23;1.63;;;;;;;6.96;100.00;97163.94;4950184;28;20277;-57
2022/09/29 00:15:13;;;;;;;4.13;1.53;;;;;;;6.96;100.00;97163.16;4950573;28;20237;-57
2022/09/29 00:17:39;;;;;;;4.27;1.47;;;;;;;6.91;100.00;97166.22;4949832;28;20242;-58
2022/09/29 00:20:07;;;;;;;4.27;1.37;;;;;;;6.87;100.00;97160.56;4951605;28;20234;-57
2022/09/29 00:22:35;;;;;;;6.23;1.20;;;;;;;6.87;100.00;97168.34;4954321;28;20274;-57
2022/09/29 00:25:01;;;;;;;5.23;1.70;;;;;;;6.85;100.00;97165.09;4963914;28;20253;-58
2022/09/29 00:27:28;;;;;;;4.77;1.57;;;;;;;6.86;100.00;97158.13;4961575;28;20237;-56
2022/09/29 00:29:55;;;;;;;5.27;1.50;;;;;;;6.83;100.00;97164.44;4958902;28;20238;-57
2022/09/29 00:32:21;;;;;;;4.10;1.47;;;;;;;6.81;100.00;97155.22;4965935;28;20241;-54
2022/09/29 00:34:49;;;;;;;5.13;1.73;;;;;;;6.81;100.00;97157.81;4963406;28;20296;-57
2022/09/29 00:37:16;;;;;;;7.57;1.77;;;;;;;6.88;100.00;97175.16;4966609;28;20265;-56
2022/09/29 00:39:44;;;;;;;4.80;1.93;;;;;;;6.91;100.00;97164.44;4964177;28;20245;-57
2022/09/29 00:42:12;;;;;;;4.20;1.63;;;;;;;6.92;100.00;97167.84;4966831;28;20229;-57
2022/09/29 00:45:01;;;;;;;3.50;1.60;;;;;;;6.96;100.00;97163.94;4962950;28;20285;-57
2022/09/29 00:47:30;;;;;;;3.13;1.63;;;;;;;6.99;100.00;97162.81;4963694;28;20321;-57
2022/09/29 00:50:00;;;;;;;4.70;1.70;;;;;;;7.03;100.00;97164.13;4965320;28;20218;-55
2022/09/29 00:52:32;;;;;;;3.63;1.50;;;;;;;7.08;100.00;97165.22;4963693;28;20706;-57
2022/09/29 00:55:05;;;;;;;4.93;1.50;;;;;;;7.13;100.00;97167.34;4959216;28;20319;-57
2022/09/29 00:57:36;;;;;;;6.73;1.67;;;;;;;7.17;100.00;97162.63;4962477;28;20233;-55
2022/09/29 01:00:07;;;;;;;5.73;2.00;;;;;;;7.21;100.00;97164.72;4965472;28;20241;-58
2022/09/29 01:02:36;;;;;;;4.57;2.03;;;;;;;7.23;100.00;97160.19;4963119;28;20237;-57
2022/09/29 01:05:07;;;;;;;4.87;1.67;;;;;;;7.27;100.00;97162.47;4965982;28;20269;-57
2022/09/29 01:07:34;;;;;;;2.57;1.63;;;;;;;7.28;100.00;97154.50;4963645;28;20288;-57
2022/09/29 01:10:02;;;;;;;3.30;1.60;;;;;;;7.29;100.00;97161.28;4965309;28;20264;-57
2022/09/29 01:12:29;;;;;;;4.60;1.60;;;;;;;7.35;100.00;97160.63;4963114;28;20280;-57
2022/09/29 01:14:56;;;;;;;5.20;1.60;;;;;;;7.32;100.00;97154.97;4965725;28;20243;-56
2022/09/29 01:17:23;;;;;;;3.80;1.40;;;;;;;7.35;100.00;97155.44;4963083;28;20706;-57
2022/09/29 01:19:58;;;;;;;2.20;1.50;;;;;;;7.35;100.00;97155.44;4965686;28;20268;-58
2022/09/29 01:22:47;;;;;;;4.50;1.83;;;;;;;7.36;100.00;97151.88;4962580;28;20575;-58
2022/09/29 01:25:35;;;;;;;4.50;1.53;;;;;;;7.38;100.00;97149.13;4965879;28;20293;-57
2022/09/29 01:28:25;;;;;;;5.57;1.43;;;;;;;7.38;100.00;97151.72;4957300;28;20811;-57
2022/09/29 01:31:05;;;;;;;10.30;1.77;;;;;;;7.44;100.00;97150.22;4960488;28;20255;-58
2022/09/29 01:33:39;;;;;;;3.53;1.63;;;;;;;7.45;100.00;97155.25;4960461;28;20315;-57
2022/09/29 01:36:17;;;;;;;3.90;1.80;;;;;;;7.42;100.00;97145.19;4962897;28;20250;-57
2022/09/29 01:38:58;;;;;;;6.47;1.77;;;;;;;7.41;100.00;97142.78;4943677;28;20229;-57
2022/09/29 01:41:33;;;;;;;3.13;1.47;;;;;;;7.39;100.00;97145.56;4959912;28;20732;-57
2022/09/29 01:44:08;;;;;;;2.87;1.60;;;;;;;7.35;100.00;97137.28;4960729;28;20739;-57
2022/09/29 01:46:39;;;;;;;3.80;1.63;;;;;;;7.34;100.00;97147.84;4960714;28;20256;-58
2022/09/29 01:49:08;;;;;;;3.73;1.10;;;;;;;7.28;100.00;97143.31;4960232;28;20226;-56
2022/09/29 01:51:40;;;;;;;3.80;1.40;;;;;;;7.20;100.00;97144.13;4960462;28;20252;-57
2022/09/29 01:54:13;;;;;;;5.37;1.30;;;;;;;7.13;100.00;97148.34;4957501;28;20742;-57
2022/09/29 01:56:43;;;;;;;5.40;1.83;;;;;;;7.08;100.00;97151.47;4958982;28;20250;-56
2022/09/29 01:59:15;;;;;;;5.07;1.50;;;;;;;6.95;100.00;97157.13;4961915;28;20227;-57
2022/09/29 02:01:47;;;;;;;5.03;1.67;;;;;;;6.91;100.00;97151.47;4958911;28;20217;-58
2022/09/29 02:04:19;;;;;;;4.47;1.57;;;;;;;6.80;100.00;97146.63;4962561;28;20304;-57
2022/09/29 02:06:54;;;;;;;3.90;1.20;;;;;;;6.66;100.00;97148.09;4958904;28;20300;-57
2022/09/29 02:09:25;;;;;;;2.50;1.33;;;;;;;6.59;100.00;97147.91;4963604;28;20617;-58
2022/09/29 02:11:53;;;;;;;7.90;1.53;;;;;;;6.50;100.00;97154.06;4960770;28;20277;-57
2022/09/29 02:14:23;;;;;;;6.20;1.50;;;;;;;6.42;100.00;97148.88;4960257;28;20622;-57
2022/09/29 02:16:57;;;;;;;2.13;1.20;;;;;;;6.46;100.00;97147.59;4959292;28;20234;-56
2022/09/29 02:19:26;;;;;;;3.50;1.50;;;;;;;6.46;100.00;97145.81;4958283;28;20232;-56
2022/09/29 02:21:54;;;;;;;3.47;1.40;;;;;;;6.40;100.00;97146.47;4962110;28;20585;-55
2022/09/29 02:24:22;;;;;;;3.43;1.40;;;;;;;6.41;100.00;97142.91;4961841;28;20230;-56
2022/09/29 02:26:48;;;;;;;5.73;1.70;;;;;;;6.32;100.00;97143.84;4955246;28;20304;-57
2022/09/29 02:29:16;;;;;;;3.83;1.27;;;;;;;6.29;100.00;97141.59;4965700;28;20598;-57
2022/09/29 02:31:44;;;;;;;4.70;1.73;;;;;;;6.26;100.00;97137.53;4962761;28;20296;-57
2022/09/29 02:34:16;;;;;;;3.73;1.27;;;;;;;6.24;100.00;97136.91;4965325;28;20236;-54
2022/09/29 02:36:54;;;;;;;6.37;1.33;;;;;;;6.17;100.00;97143.69;4962906;28;20241;-56
2022/09/29 02:39:35;;;;;;;4.63;1.53;;;;;;;6.15;100.00;97135.25;4965577;28;20234;-56
2022/09/29 02:42:12;;;;;;;4.30;1.50;;;;;;;6.09;100.00;97131.50;4967081;28;20237;-56
2022/09/29 02:44:57;;;;;;;8.27;1.30;;;;;;;6.00;100.00;97133.28;4958365;28;20244;-55
2022/09/29 02:47:49;;;;;;;3.47;1.30;;;;;;;6.02;100.00;97138.28;4965798;28;20230;-56
2022/09/29 02:50:35;;;;;;;2.47;1.50;;;;;;;6.02;100.00;97140.88;4967737;28;20225;-56
2022/09/29 02:53:09;;;;;;;4.93;1.20;;;;;;;5.97;100.00;97145.69;4947065;29;20308;-56
2022/09/29 02:55:44;;;;;;;2.53;1.60;;;;;;;6.03;100.00;97142.50;4964303;28;20956;-56
2022/09/29 02:58:17;;;;;;;5.43;1.60;;;;;;;6.09;100.00;97141.06;4968650;28;20319;-56
2022/09/29 03:03:50;;;;;;;2.83;1.43;;;;;;;6.30;100.00;97140.63;5715313;23;20228;-56
2022/09/29 03:06:20;;;;;;;1.60;1.40;;;;;;;6.44;100.00;97139.97;4979638;28;20747;-57
2022/09/29 03:08:46;;;;;;;4.33;1.50;;;;;;;6.54;100.00;97146.78;4974701;28;20703;-58
2022/09/29 03:11:13;;;;;;;4.90;1.23;;;;;;;6.59;100.00;97145.31;4980781;28;20224;-56
2022/09/29 03:13:39;;;;;;;3.27;1.80;;;;;;;6.62;100.00;97139.03;4975542;28;20292;-56
2022/09/29 03:16:06;;;;;;;4.17;1.60;;;;;;;6.69;100.00;97139.16;4968822;28;20264;-57
2022/09/29 03:18:32;;;;;;;3.53;1.40;;;;;;;6.72;100.00;97136.25;4965675;28;20237;-57
2022/09/29 03:20:59;;;;;;;1.93;1.30;;;;;;;6.73;100.00;97143.06;4968793;28;20296;-58
2022/09/29 03:23:27;;;;;;;2.53;1.60;;;;;;;6.80;100.00;97141.44;4964925;28;20242;-56
2022/09/29 03:25:53;;;;;;;3.23;2.10;;;;;;;6.82;100.00;97134.31;4968815;28;20332;-58
2022/09/29 03:28:20;;;;;;;1.80;1.53;;;;;;;6.86;100.00;97140.00;4968496;28;20242;-58
2022/09/29 03:30:46;;;;;;;5.30;1.67;;;;;;;6.88;100.00;97135.44;4965694;28;20238;-54
2022/09/29 03:33:13;;;;;;;1.97;1.27;;;;;;;6.89;100.00;97137.84;4967578;28;20398;-58
2022/09/29 03:35:39;;;;;;;4.33;1.67;;;;;;;6.90;100.00;97134.28;4948319;28;20633;-55
2022/09/29 03:38:06;;;;;;;4.90;1.70;;;;;;;6.85;100.00;97133.97;4968395;28;20366;-58
2022/09/29 03:40:34;;;;;;;4.20;2.70;;;;;;;6.81;100.00;97130.09;4964978;28;20233;-59
2022/09/29 03:43:00;;;;;;;51.33;25.27;;;;;;;6.83;100.00;97130.72;4968041;28;20241;-58
2022/09/29 03:45:27;;;;;;;10.77;6.23;;;;;;;6.81;100.00;97124.91;4965291;28;20241;-59
2022/09/29 03:47:53;;;;;;;5.80;2.63;;;;;;;6.83;100.00;97133.31;4968076;28;20236;-59
2022/09/29 03:50:20;;;;;;;8.87;1.80;;;;;;;6.86;100.00;97127.81;4967751;28;20222;-59
2022/09/29 03:52:46;;;;;;;4.30;1.40;;;;;;;6.85;100.00;97128.78;4965142;28;20698;-56
2022/09/29 03:55:13;;;;;;;3.77;1.30;;;;;;;6.79;100.00;97132.03;4967724;28;20710;-57
2022/09/29 03:57:41;;;;;;;5.83;1.63;;;;;;;6.78;100.00;97133.00;4964311;28;20607;-56
2022/09/29 04:00:09;;;;;;;4.07;1.70;;;;;;;6.79;100.00;97139.81;4966498;28;20242;-59
2022/09/29 04:02:35;;;;;;;3.07;1.70;;;;;;;6.81;100.00;97144.84;4965138;28;20303;-57
2022/09/29 04:05:02;;;;;;;6.70;2.27;;;;;;;6.85;100.00;97151.34;4967410;28;20260;-57
2022/09/29 04:07:30;;;;;;;5.67;1.70;;;;;;;6.83;100.00;97146.28;4964145;28;20363;-57
2022/09/29 04:09:56;;;;;;;3.73;1.60;;;;;;;6.84;100.00;97147.13;4967785;28;20733;-57
2022/09/29 04:12:23;;;;;;;5.30;1.57;;;;;;;6.83;100.00;97141.09;4964919;28;20289;-58
2022/09/29 04:14:51;;;;;;;3.03;1.60;;;;;;;6.83;100.00;97138.50;4967258;28;20289;-55
2022/09/29 04:17:18;;;;;;;2.60;1.30;;;;;;;6.85;100.00;97135.78;4966572;28;20248;-57
2022/09/29 04:19:44;;;;;;;3.90;1.33;;;;;;;6.86;100.00;97140.00;4963922;28;21310;-58
2022/09/29 04:22:12;;;;;;;4.00;1.73;;;;;;;6.86;100.00;97140.78;4967258;28;20234;-58
2022/09/29 04:24:39;;;;;;;8.00;1.87;;;;;;;6.89;100.00;97150.03;4964374;28;20262;-58
2022/09/29 04:27:05;;;;;;;4.87;1.70;;;;;;;6.90;100.00;97143.84;4959210;28;20312;-57
2022/09/29 04:29:32;;;;;;;4.40;1.80;;;;;;;6.91;100.00;97142.88;4964622;28;20284;-56
2022/09/29 04:32:00;;;;;;;2.43;1.70;;;;;;;6.91;100.00;97150.66;4967547;28;20241;-58
2022/09/29 04:34:26;;;;;;;4.23;1.70;;;;;;;6.88;100.00;97151.81;4964341;28;20985;-58
2022/09/29 04:36:53;;;;;;;2.80;1.60;;;;;;;6.87;100.00;97157.97;4967174;28;20234;-57
2022/09/29 04:39:19;;;;;;;2.73;1.47;;;;;;;6.82;100.00;97152.47;4966663;28;20760;-56
2022/09/29 04:41:46;;;;;;;4.33;1.60;;;;;;;6.81;100.00;97156.03;4964492;28;20237;-57
2022/09/29 04:44:12;;;;;;;3.13;1.53;;;;;;;6.78;100.00;97157.16;4966709;28;20226;-57
2022/09/29 04:46:39;;;;;;;4.03;1.67;;;;;;;6.71;100.00;97160.56;4964346;28;20234;-57
2022/09/29 04:49:07;;;;;;;3.87;1.60;;;;;;;6.67;100.00;97159.25;4967057;28;20284;-57
2022/09/29 04:51:34;;;;;;;4.70;1.70;;;;;;;6.65;100.00;97162.03;4963884;28;20238;-57
2022/09/29 04:54:00;;;;;;;6.20;1.70;;;;;;;6.63;100.00;97151.81;4966083;28;20288;-57
2022/09/29 04:56:30;;;;;;;6.40;1.70;;;;;;;6.62;100.00;97147.59;4964235;28;20277;-58
2022/09/29 04:58:56;;;;;;;6.97;2.03;;;;;;;6.63;100.00;97153.59;4966821;28;20707;-57
2022/09/29 05:01:23;;;;;;;6.67;2.20;;;;;;;6.64;100.00;97156.03;4963938;28;20304;-57
2022/09/29 05:03:49;;;;;;;4.73;2.10;;;;;;;6.65;100.00;97154.25;4963176;28;20233;-58
2022/09/29 05:06:17;;;;;;;4.17;2.23;;;;;;;6.60;100.00;97154.72;4966574;28;20253;-56
2022/09/29 05:08:44;;;;;;;4.73;1.90;;;;;;;6.58;100.00;97143.69;4964320;28;20237;-57
2022/09/29 05:11:11;;;;;;;5.13;1.90;;;;;;;6.57;100.00;97157.63;4966634;28;20289;-56
2022/09/29 05:13:38;;;;;;;7.57;3.83;;;;;;;6.57;100.00;97162.81;4962782;28;20429;-58
2022/09/29 05:16:04;;;;;;;13.90;5.43;;;;;;;6.57;100.00;97175.00;4966383;28;20312;-58
2022/09/29 05:18:32;;;;;;;14.90;7.17;;;;;;;6.53;100.00;97173.69;4963755;28;20317;-57
2022/09/29 05:21:03;;;;;;;5.63;3.87;;;;;;;6.49;100.00;97181.78;4966406;28;20583;-58
2022/09/29 05:23:31;;;;;;;8.37;2.40;;;;;;;6.50;100.00;97177.41;4963241;28;20233;-56
2022/09/29 05:26:01;;;;;;;4.63;2.03;;;;;;;6.50;100.00;97170.44;4966330;28;20238;-57
2022/09/29 05:28:27;;;;;;;3.93;1.90;;;;;;;6.53;100.00;97171.91;4962603;28;20261;-58
2022/09/29 05:30:54;;;;;;;4.70;1.93;;;;;;;6.52;100.00;97180.63;4966164;28;20238;-58
2022/09/29 05:33:20;;;;;;;3.47;1.73;;;;;;;6.50;100.00;97170.44;4965877;28;20651;-55
2022/09/29 05:35:47;;;;;;;1.97;1.60;;;;;;;6.51;100.00;97171.25;4946084;28;20276;-57
2022/09/29 05:38:15;;;;;;;3.63;1.90;;;;;;;6.54;100.00;97172.72;4966269;28;20241;-57
2022/09/29 05:40:43;;;;;;;4.47;1.93;;;;;;;6.54;100.00;97175.31;4963060;28;20321;-57
2022/09/29 05:43:09;;;;;;;5.43;2.50;;;;;;;6.58;100.00;97174.03;4965815;28;20299;-56
2022/09/29 05:45:36;;;;;;;9.67;4.67;;;;;;;6.62;100.00;97183.09;4963199;28;20237;-56
2022/09/29 05:48:02;;;;;;;7.00;4.20;;;;;;;6.69;100.00;97183.25;4965884;28;20284;-57
2022/09/29 05:50:31;;;;;;;7.23;3.33;;;;;;;6.71;100.00;97178.72;4962392;28;20257;-57
2022/09/29 05:53:02;;;;;;;5.27;3.00;;;;;;;6.76;100.00;97189.41;4965495;28;20234;-54
2022/09/29 05:55:29;;;;;;;4.67;3.47;;;;;;;6.81;100.00;97179.38;4962525;28;20230;-57
2022/09/29 05:57:57;;;;;;;3.87;1.93;;;;;;;6.91;100.00;97194.75;4965057;28;20268;-55
2022/09/29 06:00:23;;;;;;;4.47;1.83;;;;;;;6.93;100.00;97188.44;4962623;28;20316;-58
2022/09/29 06:02:50;;;;;;;4.30;2.43;;;;;;;6.96;100.00;97191.69;4965607;28;20242;-56
2022/09/29 06:05:16;;;;;;;4.40;2.20;;;;;;;6.95;100.00;97193.44;4965633;28;20324;-57
2022/09/29 06:07:43;;;;;;;2.10;1.43;;;;;;;7.02;100.00;97194.41;4945248;28;20237;-58
2022/09/29 06:10:10;;;;;;;2.70;1.90;;;;;;;7.11;100.00;97194.41;4965753;28;20610;-58
2022/09/29 06:12:37;;;;;;;5.10;2.33;;;;;;;7.23;100.00;97193.09;4962860;28;20966;-55
2022/09/29 06:15:06;;;;;;;3.63;1.90;;;;;;;7.29;100.00;97184.66;4961704;28;20238;-55
2022/09/29 06:17:33;;;;;;;4.67;2.20;;;;;;;7.45;100.00;97185.59;4964335;28;20262;-57
2022/09/29 06:20:00;;;;;;;6.57;2.00;;;;;;;7.54;100.00;97182.00;4969277;28;20229;-57
2022/09/29 06:22:27;;;;;;;6.13;1.97;;;;;;;7.60;100.00;97177.91;4966775;28;20226;-58
2022/09/29 06:24:54;;;;;;;4.40;2.27;;;;;;;7.65;100.00;97183.41;4969013;28;20245;-57
2022/09/29 06:27:21;;;;;;;4.47;2.43;;;;;;;7.68;100.00;97188.28;4961556;28;20241;-56
2022/09/29 06:29:47;;;;;;;17.67;10.27;;;;;;;7.70;100.00;97191.53;4966776;28;20365;-58
2022/09/29 06:32:16;;;;;;;10.43;5.20;;;;;;;7.77;100.00;97191.66;4969428;28;20230;-58
2022/09/29 06:40:10;;;;;;;5.93;3.83;;;;;;;8.03;100.00;97195.75;4960719;28;20234;-58
2022/09/29 06:42:37;;;;;;;7.43;4.33;;;;;;;8.11;100.00;97198.31;4964449;28;20693;-58
2022/09/29 06:45:04;;;;;;;10.07;3.60;;;;;;;8.16;100.00;97195.22;4969145;28;20306;-59
2022/09/29 06:47:32;;;;;;;4.87;3.10;;;;;;;8.30;100.00;97196.28;4965292;28;20289;-59
2022/09/29 06:50:01;;;;;;;3.63;2.07;;;;;;;8.37;100.00;97205.84;4967385;28;20230;-57
2022/09/29 06:52:28;;;;;;;3.70;2.60;;;;;;;8.53;100.00;97201.53;4966393;28;20240;-58
2022/09/29 06:54:55;;;;;;;4.40;2.30;;;;;;;8.57;100.00;97208.00;4967229;28;20237;-59
2022/09/29 06:57:21;;;;;;;3.40;1.70;;;;;;;8.68;100.00;97205.00;4966335;28;20233;-59
2022/09/29 06:59:48;;;;;;;6.97;2.50;;;;;;;8.76;100.00;97211.13;4946765;28;20239;-58
2022/09/29 07:02:14;;;;;;;4.07;3.00;;;;;;;8.82;100.00;97213.03;4956190;28;20245;-58
2022/09/29 07:04:42;;;;;;;8.20;5.40;;;;;;;8.90;100.00;97212.97;4964780;28;20233;-57
2022/09/29 07:07:09;;;;;;;11.00;5.30;;;;;;;8.99;100.00;97216.31;4968132;28;20234;-56
2022/09/29 07:09:35;;;;;;;6.03;3.97;;;;;;;9.10;100.00;97222.91;4966199;28;20253;-58
2022/09/29 07:12:02;;;;;;;8.00;4.43;;;;;;;9.21;100.00;97224.25;4968760;28;20292;-58
2022/09/29 07:14:28;;;;;;;7.13;4.80;;;;;;;9.32;100.00;97217.81;4965460;28;20792;-58
2022/09/29 07:16:57;;;;;;;9.57;5.87;;;;;;;9.42;100.00;97223.59;4968998;28;20238;-58
2022/09/29 07:19:24;;;;;;;10.63;6.67;;;;;;;9.53;100.00;97222.31;4965780;28;20577;-58
2022/09/29 07:21:52;;;;;;;7.57;4.73;;;;;;;9.59;100.00;97226.81;4968665;28;20268;-56
2022/09/29 07:24:19;;;;;;;8.87;5.00;;;;;;;9.75;100.00;97225.81;4968190;28;20237;-57
2022/09/29 07:26:45;;;;;;;8.77;4.90;;;;;;;9.91;100.00;97219.63;4964649;28;20657;-58
2022/09/29 07:29:13;;;;;;;9.03;6.03;;;;;;;10.06;100.00;97219.59;4968335;28;20235;-58
2022/09/29 07:31:40;;;;;;;12.53;7.50;;;;;;;10.26;100.00;97222.44;4965508;28;20280;-58
2022/09/29 07:34:06;;;;;;;10.47;6.93;;;;;;;10.46;100.00;97221.88;4968112;28;20245;-58
2022/09/29 07:36:33;;;;;;;8.70;6.20;;;;;;;10.60;100.00;97222.84;4965332;28;20227;-55
2022/09/29 07:39:01;;;;;;;9.33;5.50;;;;;;;10.77;100.00;97228.63;4968226;28;20226;-57
2022/09/29 07:41:28;;;;;;;7.60;4.53;;;;;;;10.84;100.00;97224.28;4965460;28;20645;-57
2022/09/29 07:43:54;;;;;;;8.43;5.23;;;;;;;10.95;100.00;97220.34;4967415;28;20237;-58
2022/09/29 07:46:21;;;;;;;9.17;5.50;;;;;;;10.93;96.78;97228.38;4968106;28;20624;-58
2022/09/29 07:48:47;;;;;;;11.43;4.50;;;;;;;10.83;94.99;97227.88;4965379;28;20650;-57
2022/09/29 07:51:16;;;;;;;10.67;4.33;;;;;;;10.85;95.01;97232.88;4966963;28;20758;-57
2022/09/29 07:53:42;;;;;;;4.50;2.97;;;;;;;10.83;94.83;97240.91;4964561;28;20242;-58
2022/09/29 07:56:12;;;;;;;7.00;3.00;;;;;;;10.83;93.36;97245.31;4968089;28;20285;-58
2022/09/29 07:58:39;;;;;;;6.10;2.80;;;;;;;10.83;93.97;97235.69;4964890;28;20235;-55
2022/09/29 08:01:09;;;;;;;5.53;2.57;;;;;;;10.80;91.45;97240.47;4967860;28;20226;-57
2022/09/29 08:03:36;;;;;;;5.67;3.00;;;;;;;10.80;90.48;97240.47;4964209;28;20243;-58
2022/09/29 08:06:02;;;;;;;6.43;3.90;;;;;;;10.81;90.28;97242.91;4967303;28;20729;-57
2022/09/29 08:08:30;;;;;;;11.53;4.47;;;;;;;10.72;91.73;97237.00;4964968;28;20258;-58
2022/09/29 08:11:02;;;;;;;6.13;4.20;;;;;;;10.66;91.82;97239.53;4967420;28;20721;-57
2022/09/29 08:13:31;;;;;;;9.68;4.70;;;;;;;10.60;92.86;97233.28;4963980;28;20536;-58
2022/09/29 08:15:59;;;;;;;6.97;4.43;;;;;;;10.60;93.46;97234.06;4967437;28;20234;-58
2022/09/29 08:18:25;;;;;;;7.97;3.80;;;;;;;10.66;93.58;97242.94;4964676;28;20871;-55
2022/09/29 08:20:53;;;;;;;7.40;3.63;;;;;;;10.69;93.65;97239.97;4967365;28;20226;-57
2022/09/29 08:23:19;;;;;;;7.07;3.80;;;;;;;10.80;92.90;97243.09;4967192;28;20257;-58
2022/09/29 08:25:46;;;;;;;8.07;4.10;;;;;;;10.95;91.90;97245.66;4964529;28;20734;-55
2022/09/29 08:28:13;;;;;;;7.27;3.67;;;;;;;11.02;91.36;97247.31;4938281;28;20723;-58
2022/09/29 08:30:41;;;;;;;5.83;3.30;;;;;;;11.21;89.82;97251.06;4963362;28;20230;-58
2022/09/29 08:33:13;;;;;;;7.43;3.77;;;;;;;11.08;89.98;97253.59;4966826;28;20231;-58
2022/09/29 08:35:40;;;;;;;4.50;3.30;;;;;;;11.21;89.34;97247.66;4964298;28;20699;-57
2022/09/29 08:38:06;;;;;;;7.00;4.50;;;;;;;11.20;88.81;97257.28;4965652;28;20235;-58
2022/09/29 08:40:34;;;;;;;8.37;4.13;;;;;;;11.19;89.90;97249.66;4963915;28;20610;-58
2022/09/29 08:43:09;;;;;;;10.17;4.33;;;;;;;11.21;88.98;97256.28;4966681;28;20642;-58
2022/09/29 08:45:39;;;;;;;11.17;3.83;;;;;;;11.08;90.76;97258.81;4964318;28;20242;-55
2022/09/29 08:48:13;;;;;;;7.87;3.50;;;;;;;10.92;90.75;97262.47;4965427;28;20218;-55
2022/09/29 08:50:45;;;;;;;4.87;3.30;;;;;;;10.99;90.31;97267.78;4960498;28;20642;-58
2022/09/29 08:53:16;;;;;;;6.63;3.30;;;;;;;10.95;89.41;97275.16;4960904;28;20301;-55
2022/09/29 08:55:48;;;;;;;5.80;3.03;;;;;;;10.96;89.46;97275.97;4964079;28;20236;-56
2022/09/29 08:58:16;;;;;;;8.33;3.63;;;;;;;10.97;90.55;97281.00;4966487;28;20282;-56
2022/09/29 09:00:51;;;;;;;8.53;3.70;;;;;;;10.91;90.04;97282.56;4963532;28;20309;-53
2022/09/29 09:03:48;;;;;;;10.10;3.73;;;;;;;11.04;91.42;97287.09;4965591;28;20237;-57
2022/09/29 09:06:24;;;;;;;6.83;3.10;;;;;;;11.08;90.32;97283.13;4957085;28;20234;-56
2022/09/29 09:09:13;;;;;;;8.00;3.20;;;;;;;11.29;88.72;97286.72;4942920;28;20242;-56
2022/09/29 09:12:00;;;;;;;7.10;3.50;;;;;;;11.43;87.11;97298.06;4959360;28;20237;-57
2022/09/29 09:14:43;;;;;;;7.27;3.40;;;;;;;11.45;88.96;97300.50;4963052;28;20250;-57
2022/09/29 09:17:24;;;;;;;6.73;3.03;;;;;;;11.78;87.94;97302.53;4966113;28;20263;-60
2022/09/29 09:20:03;;;;;;;6.70;3.23;;;;;;;11.75;86.63;97302.91;4963251;28;20226;-58
2022/09/29 09:22:42;;;;;;;5.17;2.50;;;;;;;12.04;86.09;97301.13;4963605;28;20227;-58
2022/09/29 09:25:19;;;;;;;4.33;2.23;;;;;;;11.97;83.49;97293.22;4966014;28;21083;-57
2022/09/29 09:27:49;;;;;;;7.27;2.37;;;;;;;12.06;83.82;97302.56;4962965;28;20258;-57
2022/09/29 09:30:18;;;;;;;5.27;2.67;;;;;;;12.15;81.87;97300.56;4964884;28;20330;-56
2022/09/29 09:32:49;;;;;;;4.47;2.63;;;;;;;12.34;80.89;97296.41;4963009;28;20302;-57
2022/09/29 09:35:31;;;;;;;3.93;2.10;;;;;;;12.47;79.45;97297.47;4965306;28;20318;-57
2022/09/29 09:38:02;;;;;;;3.23;2.10;;;;;;;12.43;79.70;97297.09;4954254;28;20250;-57
2022/09/29 09:40:35;;;;;;;5.50;2.13;;;;;;;12.56;79.66;97304.16;4961978;28;20759;-57
2022/09/29 09:43:06;;;;;;;7.57;2.17;;;;;;;12.92;79.64;97304.84;4965096;28;20428;-57
2022/09/29 09:45:39;;;;;;;5.33;2.10;;;;;;;13.23;77.22;97300.88;4962262;28;20311;-57
2022/09/29 09:48:13;;;;;;;4.53;1.80;;;;;;;12.99;76.30;97293.41;4965486;28;20241;-57
2022/09/29 09:50:42;;;;;;;3.50;1.90;;;;;;;13.18;76.50;97303.28;4962009;28;20228;-59
2022/09/29 09:53:14;;;;;;;3.03;1.73;;;;;;;13.04;74.73;97302.47;4965339;28;20233;-56
2022/09/29 09:55:42;;;;;;;3.67;2.17;;;;;;;13.22;74.96;97297.47;4962787;28;20236;-56
2022/09/29 09:58:24;;;;;;;4.33;1.80;;;;;;;13.06;73.67;97298.63;4965454;28;20244;-56
2022/09/29 10:00:56;;;;;;;5.43;2.20;;;;;;;13.23;74.19;97296.47;4963431;28;20236;-56
2022/09/29 10:03:23;;;;;;;5.03;2.43;;;;;;;13.31;74.71;97292.81;4964499;28;20255;-56
2022/09/29 10:05:51;;;;;;;5.87;2.40;;;;;;;13.41;73.88;97295.88;4963501;28;20662;-58
2022/09/29 10:08:24;;;;;;;5.70;1.97;;;;;;;13.13;76.23;97299.44;4966130;28;20629;-57
2022/09/29 10:10:51;;;;;;;4.70;2.13;;;;;;;13.26;76.66;97290.00;4943428;28;20319;-56
2022/09/29 10:13:18;;;;;;;2.33;1.70;;;;;;;13.53;75.40;97295.28;4945606;28;20232;-57
2022/09/29 10:15:50;;;;;;;3.77;2.10;;;;;;;13.73;73.78;97297.88;4943685;28;20646;-57
2022/09/29 10:18:20;;;;;;;8.53;2.17;;;;;;;13.70;70.84;97298.28;4944982;28;20245;-57
2022/09/29 10:20:47;;;;;;;3.10;1.73;;;;;;;13.65;70.74;97298.06;4942349;28;20238;-57
2022/09/29 10:23:26;;;;;;;3.50;1.87;;;;;;;13.59;70.88;97297.09;4945747;28;20244;-56
2022/09/29 10:25:57;;;;;;;4.90;1.90;;;;;;;13.33;73.77;97297.84;4963210;28;20236;-57
2022/09/29 10:28:26;;;;;;;6.83;2.10;;;;;;;13.49;74.74;97301.94;4962658;28;20232;-56
2022/09/29 10:30:54;;;;;;;5.37;1.97;;;;;;;13.63;72.07;97303.53;4965050;28;20242;-56
2022/09/29 10:33:24;;;;;;;3.73;1.80;;;;;;;13.93;70.94;97297.81;4964868;28;20673;-58
2022/09/29 10:36:02;;;;;;;4.03;1.97;;;;;;;14.18;71.48;97294.53;4962658;28;20289;-56
2022/09/29 10:38:31;;;;;;;5.77;2.30;;;;;;;14.39;69.22;97293.44;4962730;28;20243;-57
2022/09/29 10:41:00;;;;;;;5.47;2.00;;;;;;;14.22;68.51;97294.94;4964333;28;20288;-56
2022/09/29 10:43:34;;;;;;;7.13;1.60;;;;;;;14.42;69.75;97295.66;4962381;28;20233;-57
2022/09/29 10:46:01;;;;;;;4.50;1.93;;;;;;;14.82;66.05;97299.13;4964714;28;20294;-58
2022/09/29 10:48:27;;;;;;;5.87;1.90;;;;;;;14.45;64.77;97297.06;4962892;28;20969;-57
2022/09/29 10:50:56;;;;;;;4.40;1.90;;;;;;;14.60;64.63;97296.78;4965076;28;20299;-57
2022/09/29 10:53:34;;;;;;;3.70;1.80;;;;;;;14.90;66.02;97301.53;4964733;28;20743;-56
2022/09/29 10:56:10;;;;;;;2.40;1.67;;;;;;;15.27;69.20;97304.31;4962020;28;20306;-57
2022/09/29 10:58:39;;;;;;;3.80;1.70;;;;;;;15.47;63.54;97300.69;4962255;28;20229;-57
2022/09/29 11:01:10;;;;;;;3.53;1.73;;;;;;;15.53;61.44;97296.41;4966578;28;20616;-58
2022/09/29 11:03:40;;;;;;;2.93;1.73;;;;;;;15.28;61.29;97299.84;4965031;28;20234;-57
2022/09/29 11:06:10;;;;;;;4.53;2.13;;;;;;;15.08;62.03;97305.25;4968752;28;20233;-56
2022/09/29 11:09:00;;;;;;;4.27;2.00;;;;;;;15.10;67.35;97300.59;4966050;28;20317;-57
2022/09/29 11:11:29;;;;;;;6.83;1.90;;;;;;;15.25;65.42;97305.53;4957000;28;20232;-57
2022/09/29 11:13:58;;;;;;;2.60;1.40;;;;;;;15.58;61.99;97312.34;4968049;28;20241;-57
2022/09/29 11:16:29;;;;;;;5.03;1.90;;;;;;;15.33;62.50;97313.16;4965912;28;20585;-57
2022/09/29 11:19:00;;;;;;;2.83;1.30;;;;;;;15.47;63.11;97313.84;4968384;28;20718;-58
2022/09/29 11:22:07;;;;;;;3.57;1.43;;;;;;;15.27;64.29;97317.47;4964942;28;20285;-58
2022/09/29 11:24:50;;;;;;;5.27;1.40;;;;;;;15.46;63.75;97318.31;4938612;28;20233;-57
2022/09/29 11:27:28;;;;;;;2.77;1.60;;;;;;;15.33;60.72;97315.78;4967589;28;20290;-57
2022/09/29 11:30:03;;;;;;;4.43;1.90;;;;;;;15.34;61.53;97318.22;4965440;28;20859;-60
2022/09/29 11:32:48;;;;;;;2.97;1.50;;;;;;;15.32;63.10;97324.69;4964177;28;20273;-57
2022/09/29 11:35:38;;;;;;;3.10;1.93;;;;;;;15.20;63.80;97322.75;4967084;28;20240;-58
2022/09/29 11:38:20;;;;;;;2.47;1.67;;;;;;;15.14;61.71;97328.06;4958999;28;20245;-58
2022/09/29 11:40:58;;;;;;;4.73;1.90;;;;;;;14.89;62.54;97326.19;4961500;28;20649;-57
2022/09/29 11:43:42;;;;;;;3.53;1.70;;;;;;;15.00;62.06;97322.88;4964302;28;20230;-57
2022/09/29 11:46:21;;;;;;;3.50;1.30;;;;;;;14.86;61.26;97324.75;4967495;28;20284;-58
2022/09/29 11:49:09;;;;;;;2.10;1.23;;;;;;;15.04;61.76;97320.63;4963967;28;20282;-58
2022/09/29 11:51:51;;;;;;;4.43;1.70;;;;;;;14.96;63.98;97324.31;4959848;28;20242;-58
2022/09/29 11:54:37;;;;;;;2.80;1.40;;;;;;;15.00;61.31;97324.69;4967895;28;20233;-58